FLIGHT INFORMATION
SAS Scandinavian Airlines

SAS414

At Arrival Gate

EKCH
 ESSA
DATE: 2020-06-27
GATE:  -
GATE DEPARTURE: 19:48
TAKEOFF: 19:55
DATE: 2020-06-27
GATE:  -
LANDING: 20:56
GATE ARRIVAL: 21:03
FLIGHT DATA
Crew: MATS JOHANSSON
Speed: 448 kts Altitude: 37000 ft
Stage Length: 295 nm
Route: EKCH KEMAX NEXIL ROXEN DEKIK VEPIP BEDOS NEFYN MIKNA PELUP NILUG ESSA
Block Time: 1.3 Flight Time: 1
Fuel Used: 6605 LB
TRACK DATA
50000 FT1000 KTAltitudeSpeed
AIRCRAFT INFORMATION
Aircraft Type: B738
Registration: LN-RCN
SELCAL:  MSN/LN: 28318 / 529
Operator: SAS SCANDINAVIAN AIRLINES
Flights: 10 Block Time: 16.6 Flight Time: 13.7
Fuel Used: 87540 LB
  • DEPARTURE INFORMATION
    Date: 2020-06-27
    Airport: EKCH
    Gate:  -
    Gate Departure: 19:48
    Takeoff: 19:55
    ARRIVAL INFORMATION
    Date: 2020-06-27
    Airport: ESSA
    Gate:  -
    Landing: 20:56
    Gate Arrival: 21:03
  • FLIGHT DATA
    Crew: MATS JOHANSSON
    Speed: 448 kts Altitude: 37000 ft
    Stage Length: 159 nm
    Route: EKCH KEMAX NEXIL ROXEN DEKIK VEPIP BEDOS NEFYN MIKNA PELUP NILUG ESSA
    Block Time: 1.3 Flight Time: 1
    Fuel Used: 6605 LB
  • AIRCRAFT INFORMATION
    Aircraft Type: B738
    Registration: LN-RCN
    SELCAL:  MSN/LN: 28318 / 529
    Operator: SAS Scandinavian Airlines
    Flights: 10 Block Time: 16.6 Flight Time: 13.7
    Fuel Used: 87540 LB

DATALINK LOG | Newest first | Current as of: 2020-08-09 17:22:50
LABEL SEQUENCE CONTENT Dn/Up
QD112721:03 5.6▼ Dn
QC042220:56▼ Dn
2U1947ESSA 271950Z 15006KT CAVOK 23/11 Q1010 NOSIG▲ Up
2S1947ESSA▼ Dn
QB023019:55▼ Dn
QA562419:48 12.2▼ Dn
A33615CLEARED TO ESSA VIA KEMA4C KEMAX N851 PELUP Z226 NILUG NILU2N. SQUAWK .▲ Up
B33605EKCH ESSA SK414 SAS M ▼ Dn
2U0442ESSA 271850Z 15007KT CAVOK 24/11 Q1010 NOSIG▲ Up
2U0442EKCH 271850Z AUTO 17006KT 9999 NCD 21/16 Q1008 nosig▲ Up
2S0441EKCH ESSA▼ Dn
Q05731[LINK ACK]▲ Up
Q05731[LINK TEST]▼ Dn


AIRCRAFT HISTORY
FLIGHT DATE FLIGHT NO. ORIGIN DESTINATION ROUTE BLOCK TIME FLIGHT TIME FUEL USED (LB) PILOT
2020-08-07SAS25ESNQ ESNU ESNQ TERPA KETEL ESNU10.86146Mats Johansson
2020-07-30SAS1044ESSA ESNQ ESSA SA551 SA564 SA709 SA710 SA855 LUMAX RESNA OSK RASEN REKMI OSKIR ITVAV VAGAS NQ704 NQ703 RW031.81.49293Mats Johansson
2020-06-27SAS414EKCH ESSA EKCH KEMAX NEXIL ROXEN DEKIK VEPIP BEDOS NEFYN MIKNA PELUP NILUG ESSA1.316605Mats Johansson
2020-02-20SAS1407ESSA EKCH 1.517235Mats Johansson
2020-01-24SAS1045ESNQ ESSA 1.81.47391Mats Johansson
2019-12-07SAS1207ENGM ESNQ 1.71.59123Douglas Morlan
2019-11-14SAS4431ENTC ENGM 2.5212569Kyle Rodgers
2019-11-14SAS4425ENSB ENTC 1.71.49089Kyle Rodgers
2019-11-14SAS4414ENTC ENSB 1.71.59499Kyle Rodgers
2019-11-14SAS4406ENGM ENTC 21.610589Kyle Rodgers